createdAt,value
2018-09-27T00:02:09.323Z,74.75
2018-09-27T00:04:21.610Z,74.50
2018-09-27T00:06:33.966Z,74.82
2018-09-27T00:08:46.272Z,74.77
2018-09-27T00:10:58.619Z,75.43
2018-09-27T00:13:10.908Z,75.62
2018-09-27T00:15:23.199Z,74.81
2018-09-27T00:17:35.551Z,75.21
2018-09-27T00:19:47.820Z,74.97
2018-09-27T00:22:00.136Z,75.85
2018-09-27T00:24:12.427Z,75.69
2018-09-27T00:26:24.734Z,75.24
2018-09-27T00:28:37.045Z,75.78
2018-09-27T00:30:49.363Z,75.43
2018-09-27T00:33:01.662Z,75.96
2018-09-27T00:35:13.970Z,74.71
2018-09-27T00:37:26.302Z,75.12
2018-09-27T00:39:38.573Z,74.71
2018-09-27T00:41:50.914Z,75.46
2018-09-27T00:44:03.292Z,75.73
2018-09-27T00:46:15.599Z,74.97
2018-09-27T00:48:27.895Z,75.36
2018-09-27T00:50:40.291Z,75.93
2018-09-27T00:52:52.455Z,75.49
2018-09-27T00:55:04.668Z,76.04
2018-09-27T00:57:17.547Z,75.44
2018-09-27T00:59:29.726Z,76.25
2018-09-27T01:01:41.951Z,76.81
2018-09-27T01:03:54.137Z,76.67
2018-09-27T01:06:06.396Z,77.08
2018-09-27T01:08:18.610Z,76.94
2018-09-27T01:10:30.773Z,76.77
2018-09-27T01:12:42.974Z,76.77
2018-09-27T01:14:55.117Z,76.58
2018-09-27T01:17:07.247Z,76.30
2018-09-27T01:19:19.414Z,75.57
2018-09-27T01:21:31.548Z,75.80
2018-09-27T01:23:43.709Z,75.70
2018-09-27T01:25:55.831Z,75.58
2018-09-27T01:28:08.005Z,75.06
2018-09-27T01:30:20.156Z,75.35
2018-09-27T01:32:32.317Z,75.23
2018-09-27T01:34:44.524Z,75.74
2018-09-27T01:36:56.670Z,76.13
2018-09-27T01:39:08.810Z,75.43
2018-09-27T01:41:20.970Z,74.71
2018-09-27T01:43:33.119Z,74.90
2018-09-27T01:45:45.284Z,75.89
2018-09-27T01:47:57.451Z,75.87
2018-09-27T01:50:09.596Z,76.00
2018-09-27T01:52:21.751Z,75.38
2018-09-27T01:54:33.913Z,75.26
2018-09-27T01:56:46.044Z,75.20
2018-09-27T01:58:58.203Z,76.26
2018-09-27T02:01:10.358Z,75.82
2018-09-27T02:03:22.500Z,75.51
2018-09-27T02:05:34.678Z,76.18
2018-09-27T02:07:46.871Z,76.38
2018-09-27T02:09:59.032Z,76.38
2018-09-27T02:12:11.192Z,76.17
2018-09-27T02:14:23.342Z,76.34
2018-09-27T02:16:35.542Z,77.16
2018-09-27T02:18:47.693Z,76.71
2018-09-27T02:20:59.956Z,76.77
2018-09-27T02:23:12.096Z,76.75
2018-09-27T02:25:24.284Z,76.96
2018-09-27T02:27:36.439Z,76.64
2018-09-27T02:29:48.560Z,77.13
2018-09-27T02:32:00.733Z,77.49
2018-09-27T02:34:12.874Z,77.95
2018-09-27T02:36:25.056Z,78.50
2018-09-27T02:38:37.240Z,77.61
2018-09-27T02:40:49.368Z,78.01
2018-09-27T02:43:01.521Z,77.71
2018-09-27T02:45:13.684Z,77.59
2018-09-27T02:47:25.972Z,78.53
2018-09-27T02:49:38.107Z,78.68
2018-09-27T02:51:50.254Z,78.21
2018-09-27T02:54:02.371Z,78.28
2018-09-27T02:56:14.530Z,77.41
2018-09-27T02:58:26.887Z,77.39
2018-09-27T03:00:39.202Z,77.88
2018-09-27T03:02:51.354Z,77.86
2018-09-27T03:05:04.039Z,77.23
2018-09-27T03:07:16.253Z,77.83
2018-09-27T03:09:28.420Z,77.96
2018-09-27T03:11:41.197Z,77.96
2018-09-27T03:13:53.425Z,78.02
2018-09-27T03:16:05.609Z,77.50
2018-09-27T03:18:17.758Z,77.23
2018-09-27T03:20:29.923Z,77.32
2018-09-27T03:22:42.043Z,77.16
2018-09-27T03:24:54.168Z,77.89
2018-09-27T03:27:06.365Z,77.98
2018-09-27T03:29:18.499Z,78.05
2018-09-27T03:31:30.696Z,77.56
2018-09-27T03:33:42.833Z,78.15
2018-09-27T03:35:55.071Z,77.88
2018-09-27T03:38:07.320Z,78.07
2018-09-27T03:40:19.741Z,78.42
2018-09-27T03:42:31.759Z,77.67
2018-09-27T03:44:43.906Z,77.51
2018-09-27T03:46:56.114Z,78.03
2018-09-27T03:49:08.314Z,77.95
2018-09-27T03:51:20.474Z,77.59
2018-09-27T03:53:32.635Z,78.18
2018-09-27T03:55:44.834Z,77.37
2018-09-27T03:57:57.040Z,78.01
2018-09-27T04:00:09.198Z,77.75
2018-09-27T04:02:21.479Z,77.91
2018-09-27T04:04:33.714Z,78.20
2018-09-27T04:06:45.894Z,78.43
2018-09-27T04:08:58.071Z,77.64
2018-09-27T04:11:10.240Z,77.75
2018-09-27T04:13:22.416Z,78.76
2018-09-27T04:15:34.558Z,78.11
2018-09-27T04:17:46.802Z,78.71
2018-09-27T04:19:58.939Z,78.38
2018-09-27T04:22:11.112Z,78.38
2018-09-27T04:24:23.272Z,79.19
2018-09-27T04:26:35.751Z,79.10
2018-09-27T04:28:47.914Z,79.40
2018-09-27T04:31:00.053Z,79.28
2018-09-27T04:33:12.288Z,79.23
2018-09-27T04:35:24.430Z,79.02
2018-09-27T04:37:36.707Z,79.07
2018-09-27T04:39:48.874Z,79.17
2018-09-27T04:42:01.036Z,79.39
2018-09-27T04:44:13.226Z,79.42
2018-09-27T04:46:25.364Z,78.65
2018-09-27T04:48:37.580Z,78.49
2018-09-27T04:50:49.724Z,78.38
2018-09-27T04:55:21.432Z,78.61
2018-09-27T04:57:33.583Z,78.46
2018-09-27T04:59:45.822Z,78.60
2018-09-27T05:01:57.963Z,78.88
2018-09-27T05:04:10.144Z,78.39
2018-09-27T05:06:22.337Z,78.67
2018-09-27T05:08:34.503Z,78.51
2018-09-27T05:10:46.736Z,79.61
2018-09-27T05:12:58.881Z,78.43
2018-09-27T05:15:11.071Z,78.88
2018-09-27T05:17:23.210Z,78.41
2018-09-27T05:19:35.425Z,79.07
2018-09-27T05:21:47.572Z,79.16
2018-09-27T05:23:59.726Z,78.54
2018-09-27T05:26:11.880Z,78.46
2018-09-27T05:28:24.044Z,78.98
2018-09-27T05:30:36.283Z,78.77
2018-09-27T05:32:48.435Z,78.85
2018-09-27T05:35:00.628Z,78.46
2018-09-27T05:37:12.845Z,78.18
2018-09-27T05:39:25.062Z,78.47
2018-09-27T05:41:37.167Z,78.67
2018-09-27T05:43:49.359Z,79.04
2018-09-27T05:46:01.543Z,78.18
2018-09-27T05:48:13.691Z,78.89
2018-09-27T05:50:25.825Z,78.80
2018-09-27T05:52:38.442Z,78.73
2018-09-27T05:54:50.681Z,78.15
2018-09-27T05:57:02.863Z,78.53
2018-09-27T05:59:14.994Z,78.92
2018-09-27T06:01:27.180Z,79.27
2018-09-27T06:03:39.411Z,79.94
2018-09-27T06:05:51.621Z,80.18
2018-09-27T06:08:03.810Z,79.68
2018-09-27T06:10:15.971Z,80.01
2018-09-27T06:12:28.188Z,79.88
2018-09-27T06:14:40.337Z,79.25
2018-09-27T06:16:52.478Z,79.02
2018-09-27T06:19:04.727Z,79.70
2018-09-27T06:21:16.885Z,78.95
2018-09-27T06:23:29.063Z,79.40
2018-09-27T06:25:41.256Z,79.37
2018-09-27T06:27:53.417Z,78.37
2018-09-27T06:30:05.600Z,78.36
2018-09-27T06:32:17.786Z,78.69
2018-09-27T06:34:29.959Z,78.25
2018-09-27T06:36:42.127Z,78.77
2018-09-27T06:38:54.304Z,77.71
2018-09-27T06:41:06.454Z,77.03
2018-09-27T06:43:19.259Z,74.57
2018-09-27T06:45:31.420Z,71.02
2018-09-27T06:47:43.598Z,69.80
2018-09-27T06:49:55.759Z,66.14
2018-09-27T06:52:07.935Z,64.65
2018-09-27T06:54:20.076Z,64.96
2018-09-27T06:56:32.339Z,63.38
2018-09-27T06:58:44.476Z,61.55
2018-09-27T07:00:56.819Z,59.82
2018-09-27T07:03:08.947Z,58.57
2018-09-27T07:05:21.106Z,59.08
2018-09-27T07:07:33.340Z,58.24
2018-09-27T07:09:45.552Z,58.28
2018-09-27T07:11:57.806Z,58.35
2018-09-27T07:14:10.615Z,57.33
2018-09-27T07:16:22.806Z,56.31
2018-09-27T07:18:34.970Z,54.78
2018-09-27T07:20:47.200Z,54.44
2018-09-27T07:22:59.415Z,55.02
2018-09-27T07:25:11.658Z,54.72
2018-09-27T07:27:23.790Z,55.20
2018-09-27T07:29:35.927Z,54.28
2018-09-27T07:31:48.091Z,53.95
2018-09-27T07:34:00.258Z,53.46
2018-09-27T07:36:12.459Z,52.72
2018-09-27T07:38:24.636Z,50.99
2018-09-27T07:40:36.803Z,52.30
2018-09-27T07:42:48.982Z,51.24
2018-09-27T07:45:01.116Z,51.92
2018-09-27T07:47:13.259Z,51.86
2018-09-27T07:49:25.391Z,51.67
2018-09-27T07:51:37.560Z,51.35
2018-09-27T07:53:49.703Z,50.03
2018-09-27T07:56:02.364Z,49.19
2018-09-27T07:58:14.554Z,49.64
2018-09-27T08:00:26.691Z,50.22
2018-09-27T08:02:38.922Z,50.33
2018-09-27T08:04:51.119Z,50.09
2018-09-27T08:07:03.350Z,49.01
2018-09-27T08:09:15.501Z,48.68
2018-09-27T08:11:27.709Z,48.58
2018-09-27T08:13:39.935Z,49.36
2018-09-27T08:15:52.077Z,49.82
2018-09-27T08:18:04.299Z,48.27
2018-09-27T08:20:16.494Z,48.02
2018-09-27T08:22:28.639Z,47.81
2018-09-27T08:24:40.795Z,47.95
2018-09-27T08:26:52.980Z,46.23
2018-09-27T08:29:05.510Z,47.86
2018-09-27T08:31:17.766Z,47.85
2018-09-27T08:33:29.824Z,47.59
2018-09-27T08:35:41.995Z,46.93
2018-09-27T08:37:54.210Z,45.94
2018-09-27T08:40:06.470Z,46.34
2018-09-27T08:42:18.652Z,46.95
2018-09-27T08:44:30.970Z,45.75
2018-09-27T08:46:43.071Z,45.60
2018-09-27T08:48:55.316Z,46.05
2018-09-27T08:51:07.499Z,46.49
2018-09-27T08:53:19.721Z,45.48
2018-09-27T08:55:32.045Z,44.79
2018-09-27T08:57:44.344Z,44.87
2018-09-27T08:59:56.477Z,44.23
2018-09-27T09:02:08.768Z,45.82
2018-09-27T09:04:20.985Z,45.56
2018-09-27T09:06:33.235Z,45.43
2018-09-27T09:08:45.419Z,45.36
2018-09-27T09:10:57.672Z,45.02
2018-09-27T09:13:09.886Z,43.54
2018-09-27T09:15:22.141Z,43.86
2018-09-27T09:17:34.356Z,43.18
2018-09-27T09:19:46.587Z,45.92
2018-09-27T09:21:58.769Z,44.40
2018-09-27T09:24:11.001Z,44.21
2018-09-27T09:26:23.262Z,43.85
2018-09-27T09:28:35.497Z,43.00
2018-09-27T09:30:47.723Z,43.89
2018-09-27T09:32:59.938Z,43.97
2018-09-27T09:35:12.134Z,44.24
2018-09-27T09:37:24.453Z,44.70
2018-09-27T09:39:36.680Z,43.64
2018-09-27T09:41:48.882Z,44.52
2018-09-27T09:44:01.086Z,45.84
2018-09-27T09:46:13.359Z,43.04
2018-09-27T09:48:25.544Z,43.46
2018-09-27T09:50:37.774Z,43.47
2018-09-27T09:52:50.045Z,43.25
2018-09-27T09:55:02.252Z,42.52
2018-09-27T09:57:14.463Z,42.65
2018-09-27T09:59:26.675Z,42.74
2018-09-27T10:01:38.910Z,42.67
2018-09-27T10:03:51.222Z,42.33
2018-09-27T10:06:03.511Z,41.58
2018-09-27T10:10:27.391Z,40.39
2018-09-27T10:14:51.247Z,41.85
2018-09-27T10:17:03.495Z,41.91
2018-09-27T10:19:15.702Z,43.00
2018-09-27T10:21:27.945Z,42.76
2018-09-27T10:23:40.190Z,42.28
2018-09-27T10:25:52.439Z,41.71
2018-09-27T10:28:04.711Z,41.85
2018-09-27T10:30:16.886Z,42.31
2018-09-27T10:32:29.108Z,41.60
2018-09-27T10:34:41.597Z,42.58
2018-09-27T10:36:53.754Z,40.98
2018-09-27T10:39:07.703Z,40.87
2018-09-27T10:41:19.878Z,40.24
2018-09-27T10:43:32.120Z,41.54
2018-09-27T10:45:44.326Z,41.29
2018-09-27T10:47:56.639Z,40.32
2018-09-27T10:50:08.822Z,42.05
2018-09-27T10:52:21.049Z,40.08
2018-09-27T10:54:33.262Z,39.48
2018-09-27T10:56:45.491Z,39.07
2018-09-27T10:58:57.761Z,40.36
2018-09-27T11:01:10.005Z,40.69
2018-09-27T11:03:22.336Z,41.35
2018-09-27T11:05:34.747Z,39.48
2018-09-27T11:07:46.963Z,39.44
2018-09-27T11:09:59.203Z,38.86
2018-09-27T11:12:11.420Z,38.46
2018-09-27T11:14:23.735Z,38.87
2018-09-27T11:16:35.925Z,37.83
2018-09-27T11:18:48.155Z,37.99
2018-09-27T11:21:00.346Z,40.22
2018-09-27T11:23:12.667Z,40.22
2018-09-27T11:25:24.944Z,39.21
2018-09-27T11:27:37.213Z,38.57
2018-09-27T11:29:54.938Z,38.89
2018-09-27T11:32:12.927Z,38.58
2018-09-27T11:34:26.180Z,39.28
2018-09-27T11:36:38.433Z,38.69
2018-09-27T11:38:50.663Z,38.54
2018-09-27T11:41:02.911Z,39.10
2018-09-27T11:43:15.111Z,39.74
2018-09-27T11:45:27.323Z,39.29
2018-09-27T11:47:39.558Z,37.93
2018-09-27T11:49:51.774Z,38.30
2018-09-27T11:52:03.996Z,38.79
2018-09-27T11:54:16.220Z,38.43
2018-09-27T11:56:28.535Z,38.56
2018-09-27T11:58:40.778Z,36.67
2018-09-27T12:00:53.168Z,37.36
2018-09-27T12:03:05.385Z,37.10
2018-09-27T12:05:17.605Z,37.07
2018-09-27T12:07:29.891Z,39.13
2018-09-27T12:09:42.079Z,38.92
2018-09-27T12:11:54.494Z,38.80
2018-09-27T12:14:07.082Z,38.15
2018-09-27T12:16:19.348Z,37.96
2018-09-27T12:18:31.671Z,37.50
2018-09-27T12:20:43.927Z,37.30
2018-09-27T12:22:56.152Z,37.08
2018-09-27T12:25:08.344Z,37.46
2018-09-27T12:27:20.592Z,38.54
2018-09-27T12:29:32.824Z,39.52
2018-09-27T12:31:45.186Z,36.88
2018-09-27T12:33:57.489Z,37.33
2018-09-27T12:36:09.694Z,37.12
2018-09-27T12:38:21.934Z,36.90
2018-09-27T12:40:34.169Z,38.04
2018-09-27T12:42:46.443Z,37.32
2018-09-27T12:44:58.586Z,37.13
2018-09-27T12:47:10.827Z,35.50
2018-09-27T12:49:23.043Z,36.36
2018-09-27T12:51:35.296Z,37.78
2018-09-27T12:53:47.527Z,38.97
2018-09-27T12:55:59.738Z,37.35
2018-09-27T12:58:12.024Z,38.21
2018-09-27T13:00:24.240Z,35.77
2018-09-27T13:02:36.556Z,36.30
2018-09-27T13:04:48.798Z,37.09
2018-09-27T13:07:01.068Z,36.13
2018-09-27T13:09:13.385Z,34.85
2018-09-27T13:11:25.521Z,34.43
2018-09-27T13:13:37.734Z,34.60
2018-09-27T13:15:49.970Z,34.59
2018-09-27T13:18:02.176Z,34.64
2018-09-27T13:20:14.426Z,35.14
2018-09-27T13:22:26.616Z,35.83
2018-09-27T13:24:38.891Z,35.21
2018-09-27T13:26:51.142Z,35.13
2018-09-27T13:29:03.387Z,37.06
2018-09-27T13:31:15.756Z,34.55
2018-09-27T13:33:27.977Z,34.23
2018-09-27T13:35:40.196Z,33.26
2018-09-27T13:37:52.425Z,33.74
2018-09-27T13:40:04.804Z,34.70
2018-09-27T13:42:16.972Z,34.86
2018-09-27T13:44:29.196Z,35.27
2018-09-27T13:46:41.429Z,35.66
2018-09-27T13:48:53.792Z,35.24
2018-09-27T13:51:06.062Z,33.93
2018-09-27T13:53:18.299Z,33.75
2018-09-27T13:55:30.508Z,34.97
2018-09-27T13:57:42.761Z,35.36
2018-09-27T13:59:55.038Z,36.00
2018-09-27T14:02:07.303Z,34.09
2018-09-27T14:04:19.613Z,34.45
2018-09-27T14:06:31.845Z,35.31
2018-09-27T14:08:44.054Z,34.77
2018-09-27T14:10:56.319Z,35.19
2018-09-27T14:13:08.562Z,35.02
2018-09-27T14:15:20.774Z,34.75
2018-09-27T14:17:33.080Z,33.54
2018-09-27T14:19:45.260Z,33.48
2018-09-27T14:21:57.495Z,33.48
2018-09-27T14:24:09.743Z,34.67
2018-09-27T14:26:21.936Z,32.97
2018-09-27T14:28:34.170Z,35.82
2018-09-27T14:30:46.477Z,34.47
2018-09-27T14:32:58.694Z,34.83
2018-09-27T14:35:10.924Z,33.96
2018-09-27T14:37:23.131Z,34.88
2018-09-27T14:39:35.358Z,35.11
2018-09-27T14:41:47.673Z,33.15
2018-09-27T14:43:59.789Z,32.68
2018-09-27T14:46:12.004Z,32.94
2018-09-27T14:48:24.211Z,33.60
2018-09-27T14:50:36.425Z,34.96
2018-09-27T14:52:48.690Z,35.61
2018-09-27T14:55:01.029Z,35.13
2018-09-27T14:57:13.138Z,34.85
2018-09-27T14:59:25.393Z,35.14
2018-09-27T15:01:37.623Z,35.60
2018-09-27T15:03:49.924Z,33.80
2018-09-27T15:06:02.143Z,34.29
2018-09-27T15:08:14.361Z,32.88
2018-09-27T15:10:26.679Z,32.85
2018-09-27T15:12:38.810Z,33.10
2018-09-27T15:14:51.044Z,32.05
2018-09-27T15:17:03.280Z,34.52
2018-09-27T15:19:15.510Z,34.25
2018-09-27T15:21:27.759Z,35.38
2018-09-27T15:23:40.058Z,34.98
2018-09-27T15:25:52.223Z,35.15
2018-09-27T15:28:04.459Z,36.45
2018-09-27T15:30:16.718Z,36.74
2018-09-27T15:32:29.012Z,37.07
2018-09-27T15:34:41.336Z,35.68
2018-09-27T15:36:53.527Z,34.17
2018-09-27T15:39:06.662Z,35.72
2018-09-27T15:41:18.922Z,36.55
2018-09-27T15:43:31.129Z,36.40
2018-09-27T15:45:43.491Z,34.92
2018-09-27T15:47:55.646Z,35.14
2018-09-27T15:50:07.920Z,35.46
2018-09-27T15:52:20.178Z,35.96
2018-09-27T15:54:32.398Z,35.22
2018-09-27T15:56:44.691Z,36.08
2018-09-27T15:58:56.903Z,35.83
2018-09-27T16:01:09.228Z,36.64
2018-09-27T16:03:21.450Z,36.78
2018-09-27T16:05:33.821Z,35.62
2018-09-27T16:07:46.110Z,36.68
2018-09-27T16:09:58.371Z,36.83
2018-09-27T16:12:10.614Z,36.34
2018-09-27T16:14:22.811Z,37.08
2018-09-27T16:16:35.131Z,35.78
2018-09-27T16:18:47.339Z,36.35
2018-09-27T16:20:59.507Z,39.64
2018-09-27T16:23:11.819Z,39.82
2018-09-27T16:25:24.058Z,40.88
2018-09-27T16:27:36.287Z,40.47
2018-09-27T16:29:48.527Z,42.69
2018-09-27T16:32:00.800Z,43.92
2018-09-27T16:34:13.028Z,44.05
2018-09-27T16:36:25.285Z,43.63
2018-09-27T16:38:37.901Z,42.80
2018-09-27T16:40:50.129Z,42.64
2018-09-27T16:43:02.467Z,43.19
2018-09-27T16:45:14.724Z,43.29
2018-09-27T16:47:27.008Z,43.77
2018-09-27T16:49:39.241Z,43.30
2018-09-27T16:51:51.487Z,43.76
2018-09-27T16:54:04.107Z,45.15
2018-09-27T16:56:16.382Z,45.14
2018-09-27T16:58:28.699Z,44.50
2018-09-27T17:00:40.920Z,44.03
2018-09-27T17:02:53.492Z,43.42
2018-09-27T17:05:05.760Z,43.73
2018-09-27T17:07:18.032Z,43.98
2018-09-27T17:09:30.276Z,44.30
2018-09-27T17:11:42.553Z,44.81
2018-09-27T17:13:54.789Z,44.41
2018-09-27T17:16:07.116Z,44.70
2018-09-27T17:18:19.338Z,45.09
2018-09-27T17:20:31.606Z,46.16
2018-09-27T17:22:43.939Z,46.42
2018-09-27T17:24:56.067Z,46.96
2018-09-27T17:27:08.291Z,46.51
2018-09-27T17:29:20.556Z,47.76
2018-09-27T17:31:32.797Z,47.17
2018-09-27T17:33:45.100Z,48.79
2018-09-27T17:35:57.340Z,48.60
2018-09-27T17:38:09.621Z,48.91
2018-09-27T17:40:21.924Z,48.25
2018-09-27T17:42:34.138Z,49.57
2018-09-27T17:44:46.388Z,50.35
2018-09-27T17:46:58.656Z,50.36
2018-09-27T17:49:10.921Z,50.03
2018-09-27T17:51:23.216Z,51.43
2018-09-27T17:53:35.667Z,50.67
2018-09-27T17:55:47.973Z,51.67
2018-09-27T17:58:00.212Z,51.96
2018-09-27T18:00:12.457Z,52.28
2018-09-27T18:02:24.816Z,52.84
2018-09-27T18:04:37.066Z,52.17
2018-09-27T18:06:49.372Z,52.72
2018-09-27T18:09:01.635Z,53.41
2018-09-27T18:11:13.924Z,53.55
2018-09-27T18:13:26.175Z,53.52
2018-09-27T18:15:38.403Z,54.13
2018-09-27T18:17:50.687Z,52.85
2018-09-27T18:20:02.966Z,53.09
2018-09-27T18:22:15.315Z,53.54
2018-09-27T18:24:27.634Z,53.40
2018-09-27T18:26:39.940Z,53.20
2018-09-27T18:28:52.267Z,54.17
2018-09-27T18:31:04.621Z,55.12
2018-09-27T18:33:17.210Z,55.29
2018-09-27T18:35:29.439Z,55.09
2018-09-27T18:37:41.894Z,55.80
2018-09-27T18:39:53.974Z,55.67
2018-09-27T18:42:06.252Z,55.62
2018-09-27T18:44:18.531Z,55.66
2018-09-27T18:46:30.771Z,55.59
2018-09-27T18:48:43.134Z,55.70
2018-09-27T18:50:55.389Z,55.70
2018-09-27T18:53:07.602Z,56.22
2018-09-27T18:55:19.899Z,56.72
2018-09-27T18:57:32.261Z,55.89
2018-09-27T18:59:44.517Z,56.26
2018-09-27T19:01:56.786Z,55.64
2018-09-27T19:04:09.073Z,56.61
2018-09-27T19:06:21.349Z,56.25
2018-09-27T19:08:33.619Z,57.52
2018-09-27T19:10:45.923Z,57.37
2018-09-27T19:12:58.222Z,56.87
2018-09-27T19:15:10.480Z,57.45
2018-09-27T19:17:22.783Z,57.49
2018-09-27T19:19:35.084Z,58.32
2018-09-27T19:21:47.334Z,59.01
2018-09-27T19:23:59.606Z,58.11
2018-09-27T19:26:11.888Z,58.04
2018-09-27T19:28:24.162Z,57.59
2018-09-27T19:30:36.451Z,58.66
2018-09-27T19:32:48.723Z,58.51
2018-09-27T19:35:00.930Z,58.75
2018-09-27T19:37:13.174Z,58.65
2018-09-27T19:39:25.414Z,58.75
2018-09-27T19:41:37.989Z,59.33
2018-09-27T19:43:50.247Z,58.85
2018-09-27T19:46:02.543Z,59.69
2018-09-27T19:48:14.869Z,59.96
2018-09-27T19:50:27.182Z,59.66
2018-09-27T19:52:39.449Z,60.77
2018-09-27T19:54:51.713Z,61.01
2018-09-27T19:57:03.988Z,61.04
2018-09-27T19:59:16.255Z,61.09
2018-09-27T20:01:28.587Z,60.69
2018-09-27T20:03:40.795Z,62.11
2018-09-27T20:05:53.060Z,61.67
2018-09-27T20:08:05.357Z,62.41
2018-09-27T20:10:17.638Z,62.94
2018-09-27T20:12:29.943Z,62.72
2018-09-27T20:14:42.206Z,63.28
2018-09-27T20:16:54.495Z,63.17
2018-09-27T20:19:07.066Z,63.05
2018-09-27T20:21:19.337Z,63.67
2018-09-27T20:23:31.571Z,63.98
2018-09-27T20:25:43.811Z,63.39
2018-09-27T20:27:56.048Z,62.89
2018-09-27T20:30:08.330Z,64.20
2018-09-27T20:32:20.546Z,64.83
2018-09-27T20:34:32.827Z,64.15
2018-09-27T20:36:44.994Z,64.87
2018-09-27T20:38:57.435Z,64.40
2018-09-27T20:41:09.658Z,65.08
2018-09-27T20:43:21.920Z,63.86
2018-09-27T20:45:34.188Z,64.36
2018-09-27T20:47:46.763Z,64.45
2018-09-27T20:49:58.963Z,64.54
2018-09-27T20:52:11.256Z,64.79
2018-09-27T20:54:23.561Z,64.89
2018-09-27T20:56:35.793Z,65.41
2018-09-27T20:58:48.007Z,63.85
2018-09-27T21:01:00.199Z,64.06
2018-09-27T21:03:12.481Z,64.64
2018-09-27T21:05:24.611Z,64.69
2018-09-27T21:07:36.893Z,64.54
2018-09-27T21:09:49.080Z,64.55
2018-09-27T21:12:01.343Z,65.19
2018-09-27T21:14:13.574Z,66.13
2018-09-27T21:16:25.841Z,66.05
2018-09-27T21:18:37.994Z,65.19
2018-09-27T21:20:50.168Z,65.21
2018-09-27T21:23:02.400Z,65.66
2018-09-27T21:25:14.571Z,66.57
2018-09-27T21:27:26.815Z,66.48
2018-09-27T21:29:39.031Z,66.15
2018-09-27T21:31:51.348Z,67.04
2018-09-27T21:34:03.571Z,67.13
2018-09-27T21:36:15.793Z,67.45
2018-09-27T21:38:28.131Z,67.37
2018-09-27T21:40:40.319Z,67.86
2018-09-27T21:42:52.507Z,67.88
2018-09-27T21:45:04.710Z,67.93
2018-09-27T21:47:16.902Z,67.50
2018-09-27T21:49:29.066Z,68.10
2018-09-27T21:51:41.255Z,68.24
2018-09-27T21:53:53.551Z,68.78
2018-09-27T21:56:05.751Z,68.41
2018-09-27T21:58:17.937Z,68.33
2018-09-27T22:00:30.108Z,69.50
2018-09-27T22:02:42.281Z,68.84
2018-09-27T22:04:54.615Z,68.65
2018-09-27T22:07:06.817Z,67.93
2018-09-27T22:09:19.035Z,67.78
2018-09-27T22:11:31.199Z,69.14
2018-09-27T22:13:43.412Z,68.18
2018-09-27T22:15:55.620Z,67.75
2018-09-27T22:18:07.821Z,68.18
2018-09-27T22:20:20.003Z,68.94
2018-09-27T22:22:32.208Z,69.33
2018-09-27T22:24:44.676Z,69.05
2018-09-27T22:26:56.863Z,69.47
2018-09-27T22:29:09.091Z,68.92
2018-09-27T22:31:21.228Z,69.25
2018-09-27T22:33:33.503Z,69.20
2018-09-27T22:35:45.675Z,70.02
2018-09-27T22:37:57.891Z,70.30
2018-09-27T22:40:10.079Z,69.71
2018-09-27T22:42:22.247Z,70.47
2018-09-27T22:44:34.454Z,69.86
2018-09-27T22:46:46.687Z,69.92
2018-09-27T22:48:58.855Z,70.76
2018-09-27T22:51:11.056Z,69.92
2018-09-27T22:53:23.263Z,70.60
2018-09-27T22:55:35.410Z,70.74
2018-09-27T22:57:47.580Z,70.84
2018-09-27T22:59:59.774Z,70.80
2018-09-27T23:02:11.931Z,70.21
2018-09-27T23:04:24.118Z,70.99
2018-09-27T23:06:36.299Z,70.05
2018-09-27T23:08:48.494Z,69.98
2018-09-27T23:11:00.706Z,70.35
2018-09-27T23:13:12.869Z,70.85
2018-09-27T23:15:25.106Z,70.68
2018-09-27T23:17:37.272Z,71.26
2018-09-27T23:19:49.417Z,70.43
2018-09-27T23:22:01.601Z,71.05
2018-09-27T23:24:13.782Z,70.60
2018-09-27T23:26:26.329Z,70.52
2018-09-27T23:28:38.622Z,70.84
2018-09-27T23:30:50.775Z,71.28
2018-09-27T23:33:02.946Z,71.21
2018-09-27T23:35:15.133Z,71.33
2018-09-27T23:37:27.295Z,71.20
2018-09-27T23:39:39.537Z,70.70
2018-09-27T23:41:51.714Z,71.62
2018-09-27T23:44:03.903Z,71.51
2018-09-27T23:46:16.099Z,71.39
2018-09-27T23:48:28.323Z,71.43
2018-09-27T23:50:40.533Z,72.69
2018-09-27T23:52:52.783Z,72.69
2018-09-27T23:55:04.988Z,72.81
2018-09-27T23:57:17.218Z,71.93
2018-09-27T23:59:29.438Z,72.74
